sensor_id;sensor_type;location;lat;lon;timestamp;temperature;humidity
12520;DHT22;6325;49.540;8.364;2024-02-04T00:01:51;10.50;99.90
12520;DHT22;6325;49.540;8.364;2024-02-04T00:04:18;11.10;99.90
12520;DHT22;6325;49.540;8.364;2024-02-04T00:06:46;11.10;99.90
12520;DHT22;6325;49.540;8.364;2024-02-04T00:09:13;10.60;99.90
12520;DHT22;6325;49.540;8.364;2024-02-04T00:11:40;11.20;99.90
12520;DHT22;6325;49.540;8.364;2024-02-04T00:14:06;11.00;99.90
12520;DHT22;6325;49.540;8.364;2024-02-04T00:16:34;11.00;99.90
12520;DHT22;6325;49.540;8.364;2024-02-04T00:19:01;11.20;99.90
12520;DHT22;6325;49.540;8.364;2024-02-04T00:21:27;10.70;99.90
12520;DHT22;6325;49.540;8.364;2024-02-04T00:23:55;10.80;99.90
12520;DHT22;6325;49.540;8.364;2024-02-04T00:26:22;10.10;99.90
12520;DHT22;6325;49.540;8.364;2024-02-04T00:28:49;10.60;99.90
12520;DHT22;6325;49.540;8.364;2024-02-04T00:31:16;10.30;99.90
12520;DHT22;6325;49.540;8.364;2024-02-04T00:33:43;11.00;99.90
12520;DHT22;6325;49.540;8.364;2024-02-04T00:36:10;10.50;99.90
12520;DHT22;6325;49.540;8.364;2024-02-04T00:38:37;10.50;99.90
12520;DHT22;6325;49.540;8.364;2024-02-04T00:41:05;10.60;99.90
12520;DHT22;6325;49.540;8.364;2024-02-04T00:43:32;10.80;99.90
12520;DHT22;6325;49.540;8.364;2024-02-04T00:45:59;10.80;99.90
12520;DHT22;6325;49.540;8.364;2024-02-04T00:48:26;10.80;99.90
12520;DHT22;6325;49.540;8.364;2024-02-04T00:50:53;11.10;99.90
12520;DHT22;6325;49.540;8.364;2024-02-04T00:53:20;10.70;99.90
12520;DHT22;6325;49.540;8.364;2024-02-04T00:55:47;10.70;99.90
12520;DHT22;6325;49.540;8.364;2024-02-04T00:58:15;11.10;99.90
12520;DHT22;6325;49.540;8.364;2024-02-04T01:00:41;10.80;99.90
12520;DHT22;6325;49.540;8.364;2024-02-04T01:03:09;10.50;99.90
12520;DHT22;6325;49.540;8.364;2024-02-04T01:05:35;10.80;99.90
12520;DHT22;6325;49.540;8.364;2024-02-04T01:08:02;11.00;99.90
12520;DHT22;6325;49.540;8.364;2024-02-04T01:10:29;10.70;99.90
12520;DHT22;6325;49.540;8.364;2024-02-04T01:12:56;10.70;99.90
12520;DHT22;6325;49.540;8.364;2024-02-04T01:15:24;10.50;99.90
12520;DHT22;6325;49.540;8.364;2024-02-04T01:17:51;10.60;99.90
12520;DHT22;6325;49.540;8.364;2024-02-04T01:20:18;10.60;99.90
12520;DHT22;6325;49.540;8.364;2024-02-04T01:22:45;10.60;99.90
12520;DHT22;6325;49.540;8.364;2024-02-04T01:25:12;10.70;99.90
12520;DHT22;6325;49.540;8.364;2024-02-04T01:27:39;10.70;99.90
12520;DHT22;6325;49.540;8.364;2024-02-04T01:30:08;11.00;99.90
12520;DHT22;6325;49.540;8.364;2024-02-04T01:32:36;10.80;99.90
12520;DHT22;6325;49.540;8.364;2024-02-04T01:35:03;11.10;99.90
12520;DHT22;6325;49.540;8.364;2024-02-04T01:37:30;10.90;99.90
12520;DHT22;6325;49.540;8.364;2024-02-04T01:39:56;10.50;99.90
12520;DHT22;6325;49.540;8.364;2024-02-04T01:42:23;10.60;99.90
12520;DHT22;6325;49.540;8.364;2024-02-04T01:44:50;10.50;99.90
12520;DHT22;6325;49.540;8.364;2024-02-04T01:47:17;10.90;99.90
12520;DHT22;6325;49.540;8.364;2024-02-04T01:49:45;10.90;99.90
12520;DHT22;6325;49.540;8.364;2024-02-04T01:52:12;10.90;99.90
12520;DHT22;6325;49.540;8.364;2024-02-04T01:54:40;11.00;99.90
12520;DHT22;6325;49.540;8.364;2024-02-04T01:57:10;11.10;99.90
12520;DHT22;6325;49.540;8.364;2024-02-04T01:59:38;10.20;99.90
12520;DHT22;6325;49.540;8.364;2024-02-04T02:02:05;10.40;99.90
12520;DHT22;6325;49.540;8.364;2024-02-04T02:04:32;11.00;99.90
12520;DHT22;6325;49.540;8.364;2024-02-04T02:07:00;11.00;99.90
12520;DHT22;6325;49.540;8.364;2024-02-04T02:09:28;10.40;99.90
12520;DHT22;6325;49.540;8.364;2024-02-04T02:12:03;10.40;99.90
12520;DHT22;6325;49.540;8.364;2024-02-04T02:14:37;10.40;99.90
12520;DHT22;6325;49.540;8.364;2024-02-04T02:17:10;10.80;99.90
12520;DHT22;6325;49.540;8.364;2024-02-04T02:19:47;10.20;99.90
12520;DHT22;6325;49.540;8.364;2024-02-04T02:22:25;9.80;99.90
12520;DHT22;6325;49.540;8.364;2024-02-04T02:24:55;10.70;99.90
12520;DHT22;6325;49.540;8.364;2024-02-04T02:27:22;10.60;99.90
12520;DHT22;6325;49.540;8.364;2024-02-04T02:29:49;10.40;99.90
12520;DHT22;6325;49.540;8.364;2024-02-04T02:32:16;10.40;99.90
12520;DHT22;6325;49.540;8.364;2024-02-04T02:34:43;10.40;99.90
12520;DHT22;6325;49.540;8.364;2024-02-04T02:37:20;10.50;99.90
12520;DHT22;6325;49.540;8.364;2024-02-04T02:39:52;10.90;99.90
12520;DHT22;6325;49.540;8.364;2024-02-04T02:42:22;10.40;99.90
12520;DHT22;6325;49.540;8.364;2024-02-04T02:44:50;10.60;99.90
12520;DHT22;6325;49.540;8.364;2024-02-04T02:47:17;10.10;99.90
12520;DHT22;6325;49.540;8.364;2024-02-04T02:49:45;10.40;99.90
12520;DHT22;6325;49.540;8.364;2024-02-04T02:52:12;10.40;99.90
12520;DHT22;6325;49.540;8.364;2024-02-04T02:54:38;10.40;99.90
12520;DHT22;6325;49.540;8.364;2024-02-04T02:57:05;10.60;99.90
12520;DHT22;6325;49.540;8.364;2024-02-04T02:59:33;10.60;99.90
12520;DHT22;6325;49.540;8.364;2024-02-04T03:02:00;10.40;99.90
12520;DHT22;6325;49.540;8.364;2024-02-04T03:04:27;10.80;99.90
12520;DHT22;6325;49.540;8.364;2024-02-04T03:06:53;10.70;99.90
12520;DHT22;6325;49.540;8.364;2024-02-04T03:09:20;10.60;99.90
12520;DHT22;6325;49.540;8.364;2024-02-04T03:11:47;10.50;99.90
12520;DHT22;6325;49.540;8.364;2024-02-04T03:14:15;11.00;99.90
12520;DHT22;6325;49.540;8.364;2024-02-04T03:16:44;11.00;99.90
12520;DHT22;6325;49.540;8.364;2024-02-04T03:19:11;10.50;99.90
12520;DHT22;6325;49.540;8.364;2024-02-04T03:21:38;10.50;99.90
12520;DHT22;6325;49.540;8.364;2024-02-04T03:24:05;10.50;99.90
12520;DHT22;6325;49.540;8.364;2024-02-04T03:26:32;10.50;99.90
12520;DHT22;6325;49.540;8.364;2024-02-04T03:28:59;10.70;99.90
12520;DHT22;6325;49.540;8.364;2024-02-04T03:31:25;10.50;99.90
12520;DHT22;6325;49.540;8.364;2024-02-04T03:33:53;10.50;99.90
12520;DHT22;6325;49.540;8.364;2024-02-04T03:36:22;10.50;99.90
12520;DHT22;6325;49.540;8.364;2024-02-04T03:38:49;10.50;99.90
12520;DHT22;6325;49.540;8.364;2024-02-04T03:41:16;10.50;99.90
12520;DHT22;6325;49.540;8.364;2024-02-04T03:43:43;10.60;99.90
12520;DHT22;6325;49.540;8.364;2024-02-04T03:46:13;10.50;99.90
12520;DHT22;6325;49.540;8.364;2024-02-04T03:48:39;10.40;99.90
12520;DHT22;6325;49.540;8.364;2024-02-04T03:51:08;10.60;99.90
12520;DHT22;6325;49.540;8.364;2024-02-04T03:53:34;10.80;99.90
12520;DHT22;6325;49.540;8.364;2024-02-04T03:56:01;10.50;99.90
12520;DHT22;6325;49.540;8.364;2024-02-04T03:58:28;10.50;99.90
12520;DHT22;6325;49.540;8.364;2024-02-04T04:00:56;10.00;99.90
12520;DHT22;6325;49.540;8.364;2024-02-04T04:03:23;10.50;99.90
12520;DHT22;6325;49.540;8.364;2024-02-04T04:05:50;10.40;99.90
12520;DHT22;6325;49.540;8.364;2024-02-04T04:08:19;10.40;99.90
12520;DHT22;6325;49.540;8.364;2024-02-04T04:10:47;10.20;99.90
12520;DHT22;6325;49.540;8.364;2024-02-04T04:13:14;10.70;99.90
12520;DHT22;6325;49.540;8.364;2024-02-04T04:15:41;10.10;99.90
12520;DHT22;6325;49.540;8.364;2024-02-04T04:18:09;10.40;99.90
12520;DHT22;6325;49.540;8.364;2024-02-04T04:20:38;10.10;99.90
12520;DHT22;6325;49.540;8.364;2024-02-04T04:23:05;10.60;99.90
12520;DHT22;6325;49.540;8.364;2024-02-04T04:25:33;10.90;99.90
12520;DHT22;6325;49.540;8.364;2024-02-04T04:28:00;9.80;99.90
12520;DHT22;6325;49.540;8.364;2024-02-04T04:30:27;10.20;99.90
12520;DHT22;6325;49.540;8.364;2024-02-04T04:32:54;10.80;99.90
12520;DHT22;6325;49.540;8.364;2024-02-04T04:35:21;9.60;99.90
12520;DHT22;6325;49.540;8.364;2024-02-04T04:37:48;10.10;99.90
12520;DHT22;6325;49.540;8.364;2024-02-04T04:40:14;10.10;99.90
12520;DHT22;6325;49.540;8.364;2024-02-04T04:42:43;10.20;99.90
12520;DHT22;6325;49.540;8.364;2024-02-04T04:45:10;10.50;99.90
12520;DHT22;6325;49.540;8.364;2024-02-04T04:47:36;10.50;99.90
12520;DHT22;6325;49.540;8.364;2024-02-04T04:50:05;9.70;99.90
12520;DHT22;6325;49.540;8.364;2024-02-04T04:52:32;10.10;99.90
12520;DHT22;6325;49.540;8.364;2024-02-04T04:54:59;10.70;99.90
12520;DHT22;6325;49.540;8.364;2024-02-04T04:57:26;10.00;99.90
12520;DHT22;6325;49.540;8.364;2024-02-04T04:59:54;10.10;99.90
12520;DHT22;6325;49.540;8.364;2024-02-04T05:02:24;10.30;99.90
12520;DHT22;6325;49.540;8.364;2024-02-04T05:04:50;10.30;99.90
12520;DHT22;6325;49.540;8.364;2024-02-04T05:07:17;10.70;99.90
12520;DHT22;6325;49.540;8.364;2024-02-04T05:09:44;10.10;99.90
12520;DHT22;6325;49.540;8.364;2024-02-04T05:12:12;10.40;99.90
12520;DHT22;6325;49.540;8.364;2024-02-04T05:14:39;10.80;99.90
12520;DHT22;6325;49.540;8.364;2024-02-04T05:17:08;10.10;99.90
12520;DHT22;6325;49.540;8.364;2024-02-04T05:19:35;10.20;99.90
12520;DHT22;6325;49.540;8.364;2024-02-04T05:22:02;9.80;99.90
12520;DHT22;6325;49.540;8.364;2024-02-04T05:24:29;10.20;99.90
12520;DHT22;6325;49.540;8.364;2024-02-04T05:26:58;10.20;99.90
12520;DHT22;6325;49.540;8.364;2024-02-04T05:29:25;10.20;99.90
12520;DHT22;6325;49.540;8.364;2024-02-04T05:31:52;10.40;99.90
12520;DHT22;6325;49.540;8.364;2024-02-04T05:34:20;10.30;99.90
12520;DHT22;6325;49.540;8.364;2024-02-04T05:36:47;9.60;99.90
12520;DHT22;6325;49.540;8.364;2024-02-04T05:39:15;10.40;99.90
12520;DHT22;6325;49.540;8.364;2024-02-04T05:41:42;9.70;99.90
12520;DHT22;6325;49.540;8.364;2024-02-04T05:44:09;10.20;99.90
12520;DHT22;6325;49.540;8.364;2024-02-04T05:46:37;9.90;99.90
12520;DHT22;6325;49.540;8.364;2024-02-04T05:49:04;10.40;99.90
12520;DHT22;6325;49.540;8.364;2024-02-04T05:51:38;10.40;99.90
12520;DHT22;6325;49.540;8.364;2024-02-04T05:54:05;9.80;99.90
12520;DHT22;6325;49.540;8.364;2024-02-04T05:56:32;10.30;99.90
12520;DHT22;6325;49.540;8.364;2024-02-04T05:58:59;10.70;99.90
12520;DHT22;6325;49.540;8.364;2024-02-04T06:01:26;9.90;99.90
12520;DHT22;6325;49.540;8.364;2024-02-04T06:03:53;10.10;99.90
12520;DHT22;6325;49.540;8.364;2024-02-04T06:06:20;10.10;99.90
12520;DHT22;6325;49.540;8.364;2024-02-04T06:08:48;10.20;99.90
12520;DHT22;6325;49.540;8.364;2024-02-04T06:11:15;10.10;99.90
12520;DHT22;6325;49.540;8.364;2024-02-04T06:13:43;9.60;99.90
12520;DHT22;6325;49.540;8.364;2024-02-04T06:16:10;10.60;99.90
12520;DHT22;6325;49.540;8.364;2024-02-04T06:18:37;10.10;99.90
12520;DHT22;6325;49.540;8.364;2024-02-04T06:21:04;9.70;99.90
12520;DHT22;6325;49.540;8.364;2024-02-04T06:23:32;9.80;99.90
12520;DHT22;6325;49.540;8.364;2024-02-04T06:26:00;10.30;99.90
12520;DHT22;6325;49.540;8.364;2024-02-04T06:28:28;10.40;99.90
12520;DHT22;6325;49.540;8.364;2024-02-04T06:30:55;10.50;99.90
12520;DHT22;6325;49.540;8.364;2024-02-04T06:33:21;10.10;99.90
12520;DHT22;6325;49.540;8.364;2024-02-04T06:35:50;10.10;99.90
12520;DHT22;6325;49.540;8.364;2024-02-04T06:38:17;10.20;99.90
12520;DHT22;6325;49.540;8.364;2024-02-04T06:40:44;10.40;99.90
12520;DHT22;6325;49.540;8.364;2024-02-04T06:43:12;10.40;99.90
12520;DHT22;6325;49.540;8.364;2024-02-04T06:45:39;10.20;99.90
12520;DHT22;6325;49.540;8.364;2024-02-04T06:48:07;10.30;99.90
12520;DHT22;6325;49.540;8.364;2024-02-04T06:50:35;10.50;99.90
12520;DHT22;6325;49.540;8.364;2024-02-04T06:53:03;10.10;99.90
12520;DHT22;6325;49.540;8.364;2024-02-04T06:55:32;10.60;99.90
12520;DHT22;6325;49.540;8.364;2024-02-04T06:57:59;10.10;99.90
12520;DHT22;6325;49.540;8.364;2024-02-04T07:00:27;10.20;99.90
12520;DHT22;6325;49.540;8.364;2024-02-04T07:02:54;9.60;99.90
12520;DHT22;6325;49.540;8.364;2024-02-04T07:05:20;10.20;99.90
12520;DHT22;6325;49.540;8.364;2024-02-04T07:07:48;10.00;99.90
12520;DHT22;6325;49.540;8.364;2024-02-04T07:10:15;10.20;99.90
12520;DHT22;6325;49.540;8.364;2024-02-04T07:12:43;10.20;99.90
12520;DHT22;6325;49.540;8.364;2024-02-04T07:15:10;10.20;99.90
12520;DHT22;6325;49.540;8.364;2024-02-04T07:17:39;10.20;99.90
12520;DHT22;6325;49.540;8.364;2024-02-04T07:20:06;10.10;99.90
12520;DHT22;6325;49.540;8.364;2024-02-04T07:22:33;10.10;99.90
12520;DHT22;6325;49.540;8.364;2024-02-04T07:25:01;9.70;99.90
12520;DHT22;6325;49.540;8.364;2024-02-04T07:27:29;10.10;99.90
12520;DHT22;6325;49.540;8.364;2024-02-04T07:29:56;9.90;99.90
12520;DHT22;6325;49.540;8.364;2024-02-04T07:32:23;9.50;99.90
12520;DHT22;6325;49.540;8.364;2024-02-04T07:34:51;10.30;99.90
12520;DHT22;6325;49.540;8.364;2024-02-04T07:37:18;9.50;99.90
12520;DHT22;6325;49.540;8.364;2024-02-04T07:39:45;9.40;99.90
12520;DHT22;6325;49.540;8.364;2024-02-04T07:42:11;9.80;99.90
12520;DHT22;6325;49.540;8.364;2024-02-04T07:44:38;9.80;99.90
12520;DHT22;6325;49.540;8.364;2024-02-04T07:47:05;9.90;99.90
12520;DHT22;6325;49.540;8.364;2024-02-04T07:49:32;9.60;99.90
12520;DHT22;6325;49.540;8.364;2024-02-04T07:52:00;9.70;99.90
12520;DHT22;6325;49.540;8.364;2024-02-04T07:54:28;9.80;99.90
12520;DHT22;6325;49.540;8.364;2024-02-04T07:56:55;10.00;99.90
12520;DHT22;6325;49.540;8.364;2024-02-04T07:59:22;9.90;99.90
12520;DHT22;6325;49.540;8.364;2024-02-04T08:01:50;9.90;99.90
12520;DHT22;6325;49.540;8.364;2024-02-04T08:04:17;10.30;99.90
12520;DHT22;6325;49.540;8.364;2024-02-04T08:06:44;10.00;99.90
12520;DHT22;6325;49.540;8.364;2024-02-04T08:09:12;9.90;99.90
12520;DHT22;6325;49.540;8.364;2024-02-04T08:11:39;10.10;99.90
12520;DHT22;6325;49.540;8.364;2024-02-04T08:14:05;10.10;99.90
12520;DHT22;6325;49.540;8.364;2024-02-04T08:16:33;10.60;99.90
12520;DHT22;6325;49.540;8.364;2024-02-04T08:19:00;10.20;99.90
12520;DHT22;6325;49.540;8.364;2024-02-04T08:21:27;10.40;99.90
12520;DHT22;6325;49.540;8.364;2024-02-04T08:23:56;10.10;99.90
12520;DHT22;6325;49.540;8.364;2024-02-04T08:26:25;10.10;99.90
12520;DHT22;6325;49.540;8.364;2024-02-04T08:28:51;10.20;99.90
12520;DHT22;6325;49.540;8.364;2024-02-04T08:31:18;10.10;99.90
12520;DHT22;6325;49.540;8.364;2024-02-04T08:33:45;9.90;99.90
12520;DHT22;6325;49.540;8.364;2024-02-04T08:36:12;10.20;99.90
12520;DHT22;6325;49.540;8.364;2024-02-04T08:38:39;10.10;99.90
12520;DHT22;6325;49.540;8.364;2024-02-04T08:41:07;10.10;99.90
12520;DHT22;6325;49.540;8.364;2024-02-04T08:43:35;10.10;99.90
12520;DHT22;6325;49.540;8.364;2024-02-04T08:46:01;10.10;99.90
12520;DHT22;6325;49.540;8.364;2024-02-04T08:48:28;10.10;99.90
12520;DHT22;6325;49.540;8.364;2024-02-04T08:50:55;10.10;99.90
12520;DHT22;6325;49.540;8.364;2024-02-04T08:53:22;10.10;99.90
12520;DHT22;6325;49.540;8.364;2024-02-04T08:55:49;10.20;99.90
12520;DHT22;6325;49.540;8.364;2024-02-04T08:58:16;10.20;99.90
12520;DHT22;6325;49.540;8.364;2024-02-04T09:00:44;10.10;99.90
12520;DHT22;6325;49.540;8.364;2024-02-04T09:03:11;9.80;99.90
12520;DHT22;6325;49.540;8.364;2024-02-04T09:05:38;10.30;99.90
12520;DHT22;6325;49.540;8.364;2024-02-04T09:08:05;10.60;99.90
12520;DHT22;6325;49.540;8.364;2024-02-04T09:10:32;10.40;99.90
12520;DHT22;6325;49.540;8.364;2024-02-04T09:12:59;10.00;99.90
12520;DHT22;6325;49.540;8.364;2024-02-04T09:15:27;10.40;99.90
12520;DHT22;6325;49.540;8.364;2024-02-04T09:17:55;10.30;99.90
12520;DHT22;6325;49.540;8.364;2024-02-04T09:20:22;11.00;99.90
12520;DHT22;6325;49.540;8.364;2024-02-04T09:22:49;10.20;99.90
12520;DHT22;6325;49.540;8.364;2024-02-04T09:25:16;10.70;99.90
12520;DHT22;6325;49.540;8.364;2024-02-04T09:27:42;10.80;99.90
12520;DHT22;6325;49.540;8.364;2024-02-04T09:30:11;10.90;99.90
12520;DHT22;6325;49.540;8.364;2024-02-04T09:32:38;11.30;99.90
12520;DHT22;6325;49.540;8.364;2024-02-04T09:35:07;11.10;99.90
12520;DHT22;6325;49.540;8.364;2024-02-04T09:37:34;11.10;99.90
12520;DHT22;6325;49.540;8.364;2024-02-04T09:40:01;11.20;99.90
12520;DHT22;6325;49.540;8.364;2024-02-04T09:42:30;11.80;99.90
12520;DHT22;6325;49.540;8.364;2024-02-04T09:44:57;11.30;99.90
12520;DHT22;6325;49.540;8.364;2024-02-04T09:47:24;11.30;99.90
12520;DHT22;6325;49.540;8.364;2024-02-04T09:49:51;11.80;99.90
12520;DHT22;6325;49.540;8.364;2024-02-04T09:52:29;11.40;99.90
12520;DHT22;6325;49.540;8.364;2024-02-04T09:54:59;11.40;99.90
12520;DHT22;6325;49.540;8.364;2024-02-04T09:57:27;11.40;99.90
12520;DHT22;6325;49.540;8.364;2024-02-04T09:59:55;11.30;99.90
12520;DHT22;6325;49.540;8.364;2024-02-04T10:02:22;12.00;99.90
12520;DHT22;6325;49.540;8.364;2024-02-04T10:04:49;11.50;99.90
12520;DHT22;6325;49.540;8.364;2024-02-04T10:07:16;11.50;99.90
12520;DHT22;6325;49.540;8.364;2024-02-04T10:09:45;11.50;99.90
12520;DHT22;6325;49.540;8.364;2024-02-04T10:12:12;11.50;99.90
12520;DHT22;6325;49.540;8.364;2024-02-04T10:14:39;11.60;99.90
12520;DHT22;6325;49.540;8.364;2024-02-04T10:17:05;11.60;99.90
12520;DHT22;6325;49.540;8.364;2024-02-04T10:19:33;11.80;99.90
12520;DHT22;6325;49.540;8.364;2024-02-04T10:22:00;11.50;99.90
12520;DHT22;6325;49.540;8.364;2024-02-04T10:24:27;11.50;99.90
12520;DHT22;6325;49.540;8.364;2024-02-04T10:26:56;11.50;99.90
12520;DHT22;6325;49.540;8.364;2024-02-04T10:29:23;11.50;99.90
12520;DHT22;6325;49.540;8.364;2024-02-04T10:31:53;12.00;99.90
12520;DHT22;6325;49.540;8.364;2024-02-04T10:34:20;11.60;99.90
12520;DHT22;6325;49.540;8.364;2024-02-04T10:36:46;11.30;99.90
12520;DHT22;6325;49.540;8.364;2024-02-04T10:39:13;11.00;99.90
12520;DHT22;6325;49.540;8.364;2024-02-04T10:41:47;11.30;99.90
12520;DHT22;6325;49.540;8.364;2024-02-04T10:44:22;11.40;99.90
12520;DHT22;6325;49.540;8.364;2024-02-04T10:46:50;11.20;99.90
12520;DHT22;6325;49.540;8.364;2024-02-04T10:49:18;11.10;99.90
12520;DHT22;6325;49.540;8.364;2024-02-04T10:51:46;11.70;99.90
12520;DHT22;6325;49.540;8.364;2024-02-04T10:54:15;11.90;99.90
12520;DHT22;6325;49.540;8.364;2024-02-04T10:56:45;11.20;99.90
12520;DHT22;6325;49.540;8.364;2024-02-04T10:59:14;11.90;99.90
12520;DHT22;6325;49.540;8.364;2024-02-04T11:01:46;12.00;99.90
12520;DHT22;6325;49.540;8.364;2024-02-04T11:04:14;11.90;99.90
12520;DHT22;6325;49.540;8.364;2024-02-04T11:06:41;12.00;99.90
12520;DHT22;6325;49.540;8.364;2024-02-04T11:09:09;11.90;99.90
12520;DHT22;6325;49.540;8.364;2024-02-04T11:11:36;11.90;99.90
12520;DHT22;6325;49.540;8.364;2024-02-04T11:14:04;12.10;99.90
12520;DHT22;6325;49.540;8.364;2024-02-04T11:16:47;12.10;99.90
12520;DHT22;6325;49.540;8.364;2024-02-04T11:19:27;12.00;99.90
12520;DHT22;6325;49.540;8.364;2024-02-04T11:22:17;12.20;99.90
12520;DHT22;6325;49.540;8.364;2024-02-04T11:24:57;12.10;99.90
12520;DHT22;6325;49.540;8.364;2024-02-04T11:27:25;12.40;99.90
12520;DHT22;6325;49.540;8.364;2024-02-04T11:29:52;11.60;99.90
12520;DHT22;6325;49.540;8.364;2024-02-04T11:32:21;11.60;99.90
12520;DHT22;6325;49.540;8.364;2024-02-04T11:34:48;11.80;99.90
12520;DHT22;6325;49.540;8.364;2024-02-04T11:37:16;11.90;99.90
12520;DHT22;6325;49.540;8.364;2024-02-04T11:39:51;11.30;99.90
12520;DHT22;6325;49.540;8.364;2024-02-04T11:42:18;11.80;99.90
12520;DHT22;6325;49.540;8.364;2024-02-04T11:44:46;12.50;99.90
12520;DHT22;6325;49.540;8.364;2024-02-04T11:47:24;12.00;99.90
12520;DHT22;6325;49.540;8.364;2024-02-04T11:49:54;12.10;99.90
12520;DHT22;6325;49.540;8.364;2024-02-04T11:52:21;12.20;99.90
12520;DHT22;6325;49.540;8.364;2024-02-04T11:54:49;12.30;99.90
12520;DHT22;6325;49.540;8.364;2024-02-04T11:57:15;12.00;99.90
12520;DHT22;6325;49.540;8.364;2024-02-04T11:59:42;12.50;99.90
12520;DHT22;6325;49.540;8.364;2024-02-04T12:02:11;12.30;99.90
12520;DHT22;6325;49.540;8.364;2024-02-04T12:04:39;12.60;99.90
12520;DHT22;6325;49.540;8.364;2024-02-04T12:07:06;13.30;99.90
12520;DHT22;6325;49.540;8.364;2024-02-04T12:09:35;13.60;99.90
12520;DHT22;6325;49.540;8.364;2024-02-04T12:12:02;13.90;99.90
12520;DHT22;6325;49.540;8.364;2024-02-04T12:14:29;14.10;99.90
12520;DHT22;6325;49.540;8.364;2024-02-04T12:16:56;13.00;99.90
12520;DHT22;6325;49.540;8.364;2024-02-04T12:19:24;12.90;99.90
12520;DHT22;6325;49.540;8.364;2024-02-04T12:21:53;13.10;99.90
12520;DHT22;6325;49.540;8.364;2024-02-04T12:24:21;12.90;99.90
12520;DHT22;6325;49.540;8.364;2024-02-04T12:26:48;13.40;99.90
12520;DHT22;6325;49.540;8.364;2024-02-04T12:29:15;12.90;99.90
12520;DHT22;6325;49.540;8.364;2024-02-04T12:31:42;13.30;99.90
12520;DHT22;6325;49.540;8.364;2024-02-04T12:34:10;12.60;99.90
12520;DHT22;6325;49.540;8.364;2024-02-04T12:36:37;13.20;99.90
12520;DHT22;6325;49.540;8.364;2024-02-04T12:39:05;13.00;99.90
12520;DHT22;6325;49.540;8.364;2024-02-04T12:41:35;13.00;99.90
12520;DHT22;6325;49.540;8.364;2024-02-04T12:44:02;12.40;99.90
12520;DHT22;6325;49.540;8.364;2024-02-04T12:46:30;13.00;99.90
12520;DHT22;6325;49.540;8.364;2024-02-04T12:48:58;13.30;99.90
12520;DHT22;6325;49.540;8.364;2024-02-04T12:51:26;12.90;99.90
12520;DHT22;6325;49.540;8.364;2024-02-04T12:54:05;12.80;99.90
12520;DHT22;6325;49.540;8.364;2024-02-04T12:56:43;12.80;99.90
12520;DHT22;6325;49.540;8.364;2024-02-04T12:59:10;12.80;99.90
12520;DHT22;6325;49.540;8.364;2024-02-04T13:01:37;12.80;99.90
12520;DHT22;6325;49.540;8.364;2024-02-04T13:04:04;13.30;99.90
12520;DHT22;6325;49.540;8.364;2024-02-04T13:06:31;12.60;99.90
12520;DHT22;6325;49.540;8.364;2024-02-04T13:08:58;12.50;99.90
12520;DHT22;6325;49.540;8.364;2024-02-04T13:11:26;12.70;99.90
12520;DHT22;6325;49.540;8.364;2024-02-04T13:13:53;12.80;99.90
12520;DHT22;6325;49.540;8.364;2024-02-04T13:16:19;12.90;99.90
12520;DHT22;6325;49.540;8.364;2024-02-04T13:18:52;12.70;99.90
12520;DHT22;6325;49.540;8.364;2024-02-04T13:21:19;12.10;99.90
12520;DHT22;6325;49.540;8.364;2024-02-04T13:23:47;12.60;99.90
12520;DHT22;6325;49.540;8.364;2024-02-04T13:26:15;12.60;99.90
12520;DHT22;6325;49.540;8.364;2024-02-04T13:28:43;12.50;99.90
12520;DHT22;6325;49.540;8.364;2024-02-04T13:31:10;12.50;99.90
12520;DHT22;6325;49.540;8.364;2024-02-04T13:33:38;12.50;99.90
12520;DHT22;6325;49.540;8.364;2024-02-04T13:36:06;12.40;99.90
12520;DHT22;6325;49.540;8.364;2024-02-04T13:38:33;11.90;99.90
12520;DHT22;6325;49.540;8.364;2024-02-04T13:41:00;12.70;99.90
12520;DHT22;6325;49.540;8.364;2024-02-04T13:43:27;12.80;99.90
12520;DHT22;6325;49.540;8.364;2024-02-04T13:45:55;13.10;99.90
12520;DHT22;6325;49.540;8.364;2024-02-04T13:48:22;12.90;99.90
12520;DHT22;6325;49.540;8.364;2024-02-04T13:50:51;12.60;99.90
12520;DHT22;6325;49.540;8.364;2024-02-04T13:53:19;12.10;99.90
12520;DHT22;6325;49.540;8.364;2024-02-04T13:55:46;12.50;99.90
12520;DHT22;6325;49.540;8.364;2024-02-04T13:58:13;12.50;99.90
12520;DHT22;6325;49.540;8.364;2024-02-04T14:00:40;12.70;99.90
12520;DHT22;6325;49.540;8.364;2024-02-04T14:03:08;12.70;99.90
12520;DHT22;6325;49.540;8.364;2024-02-04T14:05:38;12.90;99.90
12520;DHT22;6325;49.540;8.364;2024-02-04T14:08:06;12.60;99.90
12520;DHT22;6325;49.540;8.364;2024-02-04T14:10:33;12.50;99.90
12520;DHT22;6325;49.540;8.364;2024-02-04T14:12:59;12.30;99.90
12520;DHT22;6325;49.540;8.364;2024-02-04T14:15:26;11.90;99.90
12520;DHT22;6325;49.540;8.364;2024-02-04T14:17:53;12.20;99.90
12520;DHT22;6325;49.540;8.364;2024-02-04T14:20:21;12.60;99.90
12520;DHT22;6325;49.540;8.364;2024-02-04T14:22:49;12.10;99.90
12520;DHT22;6325;49.540;8.364;2024-02-04T14:25:16;12.70;99.90
12520;DHT22;6325;49.540;8.364;2024-02-04T14:27:43;12.60;99.90
12520;DHT22;6325;49.540;8.364;2024-02-04T14:30:10;12.90;99.90
12520;DHT22;6325;49.540;8.364;2024-02-04T14:32:37;13.00;99.90
12520;DHT22;6325;49.540;8.364;2024-02-04T14:35:05;13.00;99.90
12520;DHT22;6325;49.540;8.364;2024-02-04T14:37:33;12.90;99.90
12520;DHT22;6325;49.540;8.364;2024-02-04T14:40:00;12.50;99.90
12520;DHT22;6325;49.540;8.364;2024-02-04T14:42:29;12.30;99.90
12520;DHT22;6325;49.540;8.364;2024-02-04T14:44:56;12.50;99.90
12520;DHT22;6325;49.540;8.364;2024-02-04T14:47:22;12.90;99.90
12520;DHT22;6325;49.540;8.364;2024-02-04T14:49:49;12.60;99.90
12520;DHT22;6325;49.540;8.364;2024-02-04T14:52:16;12.50;99.90
12520;DHT22;6325;49.540;8.364;2024-02-04T14:54:44;12.50;99.90
12520;DHT22;6325;49.540;8.364;2024-02-04T14:57:11;12.50;99.90
12520;DHT22;6325;49.540;8.364;2024-02-04T14:59:38;12.70;99.90
12520;DHT22;6325;49.540;8.364;2024-02-04T15:02:06;12.80;99.90
12520;DHT22;6325;49.540;8.364;2024-02-04T15:04:33;12.10;99.90
12520;DHT22;6325;49.540;8.364;2024-02-04T15:07:01;12.40;99.90
12520;DHT22;6325;49.540;8.364;2024-02-04T15:09:30;11.90;99.90
12520;DHT22;6325;49.540;8.364;2024-02-04T15:11:59;12.60;99.90
12520;DHT22;6325;49.540;8.364;2024-02-04T15:14:26;12.20;99.90
12520;DHT22;6325;49.540;8.364;2024-02-04T15:16:54;11.60;99.90
12520;DHT22;6325;49.540;8.364;2024-02-04T15:19:21;12.10;99.90
12520;DHT22;6325;49.540;8.364;2024-02-04T15:21:50;11.80;99.90
12520;DHT22;6325;49.540;8.364;2024-02-04T15:24:18;12.00;99.90
12520;DHT22;6325;49.540;8.364;2024-02-04T15:26:48;12.00;99.90
12520;DHT22;6325;49.540;8.364;2024-02-04T15:29:17;12.40;99.90
12520;DHT22;6325;49.540;8.364;2024-02-04T15:31:45;12.00;99.90
12520;DHT22;6325;49.540;8.364;2024-02-04T15:34:15;11.90;99.90
12520;DHT22;6325;49.540;8.364;2024-02-04T15:36:42;11.90;99.90
12520;DHT22;6325;49.540;8.364;2024-02-04T15:39:09;11.90;99.90
12520;DHT22;6325;49.540;8.364;2024-02-04T15:41:37;12.10;99.90
12520;DHT22;6325;49.540;8.364;2024-02-04T15:44:04;11.70;99.90
12520;DHT22;6325;49.540;8.364;2024-02-04T15:46:33;12.30;99.90
12520;DHT22;6325;49.540;8.364;2024-02-04T15:49:01;12.10;99.90
12520;DHT22;6325;49.540;8.364;2024-02-04T15:51:30;12.00;99.90